sensor_id;sensor_type;location;lat;lon;timestamp;temperature;humidity
16441;DHT22;8330;-33.858;151.184;2022-12-05T00:00:24;26.80;99.90
16441;DHT22;8330;-33.858;151.184;2022-12-05T00:02:55;26.80;99.90
16441;DHT22;8330;-33.858;151.184;2022-12-05T00:05:25;26.90;99.90
16441;DHT22;8330;-33.858;151.184;2022-12-05T00:07:57;27.00;99.90
16441;DHT22;8330;-33.858;151.184;2022-12-05T00:10:30;27.10;99.90
16441;DHT22;8330;-33.858;151.184;2022-12-05T00:13:01;27.10;99.90
16441;DHT22;8330;-33.858;151.184;2022-12-05T00:15:35;27.10;99.90
16441;DHT22;8330;-33.858;151.184;2022-12-05T00:18:06;27.20;99.90
16441;DHT22;8330;-33.858;151.184;2022-12-05T00:20:36;27.20;99.90
16441;DHT22;8330;-33.858;151.184;2022-12-05T00:23:13;27.30;99.90
16441;DHT22;8330;-33.858;151.184;2022-12-05T00:25:46;27.40;99.90
16441;DHT22;8330;-33.858;151.184;2022-12-05T00:28:17;27.40;99.90
16441;DHT22;8330;-33.858;151.184;2022-12-05T00:30:48;27.30;99.90
16441;DHT22;8330;-33.858;151.184;2022-12-05T00:33:19;27.20;99.90
16441;DHT22;8330;-33.858;151.184;2022-12-05T00:35:50;27.30;99.90
16441;DHT22;8330;-33.858;151.184;2022-12-05T00:38:22;27.50;99.90
16441;DHT22;8330;-33.858;151.184;2022-12-05T00:40:55;27.50;99.90
16441;DHT22;8330;-33.858;151.184;2022-12-05T00:43:26;27.50;99.90
16441;DHT22;8330;-33.858;151.184;2022-12-05T00:45:59;27.60;99.90
16441;DHT22;8330;-33.858;151.184;2022-12-05T00:48:30;27.70;99.90
16441;DHT22;8330;-33.858;151.184;2022-12-05T00:51:02;27.80;99.90
16441;DHT22;8330;-33.858;151.184;2022-12-05T00:53:33;27.90;99.90
16441;DHT22;8330;-33.858;151.184;2022-12-05T00:56:10;28.00;99.90
16441;DHT22;8330;-33.858;151.184;2022-12-05T00:58:41;28.10;99.90
16441;DHT22;8330;-33.858;151.184;2022-12-05T01:01:14;28.00;99.90
16441;DHT22;8330;-33.858;151.184;2022-12-05T01:03:45;28.20;99.90
16441;DHT22;8330;-33.858;151.184;2022-12-05T01:06:16;28.30;99.90
16441;DHT22;8330;-33.858;151.184;2022-12-05T01:08:49;28.40;99.90
16441;DHT22;8330;-33.858;151.184;2022-12-05T01:11:22;28.60;99.90
16441;DHT22;8330;-33.858;151.184;2022-12-05T01:13:53;28.70;99.90
16441;DHT22;8330;-33.858;151.184;2022-12-05T01:16:25;28.80;99.90
16441;DHT22;8330;-33.858;151.184;2022-12-05T01:18:58;28.90;99.90
16441;DHT22;8330;-33.858;151.184;2022-12-05T01:21:30;28.80;99.90
16441;DHT22;8330;-33.858;151.184;2022-12-05T01:24:02;28.70;99.90
16441;DHT22;8330;-33.858;151.184;2022-12-05T01:26:35;28.80;99.90
16441;DHT22;8330;-33.858;151.184;2022-12-05T01:29:06;28.80;99.90
16441;DHT22;8330;-33.858;151.184;2022-12-05T01:31:38;28.80;99.90
16441;DHT22;8330;-33.858;151.184;2022-12-05T01:34:10;28.80;99.90
16441;DHT22;8330;-33.858;151.184;2022-12-05T01:36:41;28.90;99.90
16441;DHT22;8330;-33.858;151.184;2022-12-05T01:39:13;29.00;99.90
16441;DHT22;8330;-33.858;151.184;2022-12-05T01:41:47;29.00;99.90
16441;DHT22;8330;-33.858;151.184;2022-12-05T01:47:25;29.30;99.90
16441;DHT22;8330;-33.858;151.184;2022-12-05T01:49:57;29.40;99.90
16441;DHT22;8330;-33.858;151.184;2022-12-05T01:52:30;29.50;99.90
16441;DHT22;8330;-33.858;151.184;2022-12-05T01:55:06;29.50;99.90
16441;DHT22;8330;-33.858;151.184;2022-12-05T01:57:40;29.50;99.90
16441;DHT22;8330;-33.858;151.184;2022-12-05T02:00:13;29.70;99.90
16441;DHT22;8330;-33.858;151.184;2022-12-05T02:02:47;29.70;99.90
16441;DHT22;8330;-33.858;151.184;2022-12-05T02:05:20;29.90;99.90
16441;DHT22;8330;-33.858;151.184;2022-12-05T02:07:52;29.90;99.90
16441;DHT22;8330;-33.858;151.184;2022-12-05T02:10:23;29.80;99.90
16441;DHT22;8330;-33.858;151.184;2022-12-05T02:13:01;29.60;99.90
16441;DHT22;8330;-33.858;151.184;2022-12-05T02:15:41;29.60;99.90
16441;DHT22;8330;-33.858;151.184;2022-12-05T02:18:22;29.60;99.90
16441;DHT22;8330;-33.858;151.184;2022-12-05T02:21:08;29.90;99.90
16441;DHT22;8330;-33.858;151.184;2022-12-05T02:24:17;30.30;99.90
16441;DHT22;8330;-33.858;151.184;2022-12-05T02:27:10;30.50;99.90
16441;DHT22;8330;-33.858;151.184;2022-12-05T02:29:59;30.40;99.90
16441;DHT22;8330;-33.858;151.184;2022-12-05T02:32:37;30.30;99.90
16441;DHT22;8330;-33.858;151.184;2022-12-05T02:35:20;30.20;99.90
16441;DHT22;8330;-33.858;151.184;2022-12-05T02:38:01;30.10;99.90
16441;DHT22;8330;-33.858;151.184;2022-12-05T02:40:42;30.40;99.90
16441;DHT22;8330;-33.858;151.184;2022-12-05T02:43:17;30.50;99.90
16441;DHT22;8330;-33.858;151.184;2022-12-05T02:45:54;30.60;99.90
16441;DHT22;8330;-33.858;151.184;2022-12-05T02:48:28;30.40;99.90
16441;DHT22;8330;-33.858;151.184;2022-12-05T02:51:00;30.40;99.90
16441;DHT22;8330;-33.858;151.184;2022-12-05T02:53:32;30.50;99.90
16441;DHT22;8330;-33.858;151.184;2022-12-05T02:56:06;30.60;99.90
16441;DHT22;8330;-33.858;151.184;2022-12-05T02:58:40;30.80;99.90
16441;DHT22;8330;-33.858;151.184;2022-12-05T03:01:16;30.90;99.90
16441;DHT22;8330;-33.858;151.184;2022-12-05T03:03:48;31.10;99.90
16441;DHT22;8330;-33.858;151.184;2022-12-05T03:06:21;31.20;99.90
16441;DHT22;8330;-33.858;151.184;2022-12-05T03:08:57;31.30;99.90
16441;DHT22;8330;-33.858;151.184;2022-12-05T03:11:33;31.40;99.90
16441;DHT22;8330;-33.858;151.184;2022-12-05T03:14:09;31.50;99.90
16441;DHT22;8330;-33.858;151.184;2022-12-05T03:16:48;31.70;99.90
16441;DHT22;8330;-33.858;151.184;2022-12-05T03:19:23;31.80;99.90
16441;DHT22;8330;-33.858;151.184;2022-12-05T03:21:57;31.80;99.90
16441;DHT22;8330;-33.858;151.184;2022-12-05T03:24:29;31.70;99.90
16441;DHT22;8330;-33.858;151.184;2022-12-05T03:27:07;31.30;99.90
16441;DHT22;8330;-33.858;151.184;2022-12-05T03:29:43;31.30;99.90
16441;DHT22;8330;-33.858;151.184;2022-12-05T03:32:22;31.50;99.90
16441;DHT22;8330;-33.858;151.184;2022-12-05T03:35:05;31.80;99.90
16441;DHT22;8330;-33.858;151.184;2022-12-05T03:37:44;31.70;99.90
16441;DHT22;8330;-33.858;151.184;2022-12-05T03:40:30;31.50;99.90
16441;DHT22;8330;-33.858;151.184;2022-12-05T03:43:07;31.40;99.90
16441;DHT22;8330;-33.858;151.184;2022-12-05T03:45:45;31.70;99.90
16441;DHT22;8330;-33.858;151.184;2022-12-05T03:48:23;31.60;99.90
16441;DHT22;8330;-33.858;151.184;2022-12-05T03:50:58;31.70;99.90
16441;DHT22;8330;-33.858;151.184;2022-12-05T03:53:33;31.70;99.90
16441;DHT22;8330;-33.858;151.184;2022-12-05T03:56:08;31.80;99.90
16441;DHT22;8330;-33.858;151.184;2022-12-05T03:58:44;32.00;99.90
16441;DHT22;8330;-33.858;151.184;2022-12-05T04:01:18;32.00;99.90
16441;DHT22;8330;-33.858;151.184;2022-12-05T04:03:55;31.70;99.90
16441;DHT22;8330;-33.858;151.184;2022-12-05T04:06:30;31.60;99.90
16441;DHT22;8330;-33.858;151.184;2022-12-05T04:09:03;31.70;99.90
16441;DHT22;8330;-33.858;151.184;2022-12-05T04:11:38;31.70;99.90
16441;DHT22;8330;-33.858;151.184;2022-12-05T04:14:11;31.70;99.90
16441;DHT22;8330;-33.858;151.184;2022-12-05T04:16:46;31.90;99.90
16441;DHT22;8330;-33.858;151.184;2022-12-05T04:19:37;32.10;99.90
16441;DHT22;8330;-33.858;151.184;2022-12-05T04:22:25;32.20;99.90
16441;DHT22;8330;-33.858;151.184;2022-12-05T04:24:57;32.10;99.90
16441;DHT22;8330;-33.858;151.184;2022-12-05T04:27:51;32.10;99.90
16441;DHT22;8330;-33.858;151.184;2022-12-05T04:30:23;31.90;99.90
16441;DHT22;8330;-33.858;151.184;2022-12-05T04:32:59;31.70;99.90
16441;DHT22;8330;-33.858;151.184;2022-12-05T04:35:36;31.70;99.90
16441;DHT22;8330;-33.858;151.184;2022-12-05T04:38:12;31.80;99.90
16441;DHT22;8330;-33.858;151.184;2022-12-05T04:40:49;31.80;99.90
16441;DHT22;8330;-33.858;151.184;2022-12-05T04:43:23;31.90;99.90
16441;DHT22;8330;-33.858;151.184;2022-12-05T04:45:56;31.70;99.90
16441;DHT22;8330;-33.858;151.184;2022-12-05T04:48:30;31.60;99.90
16441;DHT22;8330;-33.858;151.184;2022-12-05T04:51:04;31.80;99.90
16441;DHT22;8330;-33.858;151.184;2022-12-05T04:53:38;31.90;99.90
16441;DHT22;8330;-33.858;151.184;2022-12-05T04:56:13;31.40;99.90
16441;DHT22;8330;-33.858;151.184;2022-12-05T04:58:46;30.60;99.90
16441;DHT22;8330;-33.858;151.184;2022-12-05T05:01:20;30.20;99.90
16441;DHT22;8330;-33.858;151.184;2022-12-05T05:03:54;29.80;99.90
16441;DHT22;8330;-33.858;151.184;2022-12-05T05:06:29;29.50;99.90
16441;DHT22;8330;-33.858;151.184;2022-12-05T05:09:00;29.40;99.90
16441;DHT22;8330;-33.858;151.184;2022-12-05T05:11:33;29.20;99.90
16441;DHT22;8330;-33.858;151.184;2022-12-05T05:14:04;28.90;99.90
16441;DHT22;8330;-33.858;151.184;2022-12-05T05:16:37;28.60;99.90
16441;DHT22;8330;-33.858;151.184;2022-12-05T05:19:09;28.40;99.90
16441;DHT22;8330;-33.858;151.184;2022-12-05T05:21:42;28.00;99.90
16441;DHT22;8330;-33.858;151.184;2022-12-05T05:24:15;27.90;99.90
16441;DHT22;8330;-33.858;151.184;2022-12-05T05:26:48;27.80;99.90
16441;DHT22;8330;-33.858;151.184;2022-12-05T05:29:20;27.70;99.90
16441;DHT22;8330;-33.858;151.184;2022-12-05T05:31:51;27.50;99.90
16441;DHT22;8330;-33.858;151.184;2022-12-05T05:34:21;27.20;99.90
16441;DHT22;8330;-33.858;151.184;2022-12-05T05:36:57;27.10;99.90
16441;DHT22;8330;-33.858;151.184;2022-12-05T05:39:28;26.90;99.90
16441;DHT22;8330;-33.858;151.184;2022-12-05T05:41:58;26.70;99.90
16441;DHT22;8330;-33.858;151.184;2022-12-05T05:44:29;26.50;99.90
16441;DHT22;8330;-33.858;151.184;2022-12-05T05:47:00;26.40;99.90
16441;DHT22;8330;-33.858;151.184;2022-12-05T05:49:31;26.70;99.90
16441;DHT22;8330;-33.858;151.184;2022-12-05T05:52:04;26.90;99.90
16441;DHT22;8330;-33.858;151.184;2022-12-05T05:54:35;27.50;99.90
16441;DHT22;8330;-33.858;151.184;2022-12-05T05:57:06;28.60;99.90
16441;DHT22;8330;-33.858;151.184;2022-12-05T05:59:37;29.70;99.90
16441;DHT22;8330;-33.858;151.184;2022-12-05T06:02:09;30.70;99.90
16441;DHT22;8330;-33.858;151.184;2022-12-05T06:04:40;31.50;99.90
16441;DHT22;8330;-33.858;151.184;2022-12-05T06:07:13;32.00;99.90
16441;DHT22;8330;-33.858;151.184;2022-12-05T06:09:45;31.70;99.90
16441;DHT22;8330;-33.858;151.184;2022-12-05T06:12:16;30.90;99.90
16441;DHT22;8330;-33.858;151.184;2022-12-05T06:14:48;30.50;99.90
16441;DHT22;8330;-33.858;151.184;2022-12-05T06:17:26;30.10;99.90
16441;DHT22;8330;-33.858;151.184;2022-12-05T06:19:57;29.60;99.90
16441;DHT22;8330;-33.858;151.184;2022-12-05T06:22:30;29.30;99.90
16441;DHT22;8330;-33.858;151.184;2022-12-05T06:25:01;28.80;99.90
16441;DHT22;8330;-33.858;151.184;2022-12-05T06:27:32;28.70;99.90
16441;DHT22;8330;-33.858;151.184;2022-12-05T06:30:03;28.70;99.90
16441;DHT22;8330;-33.858;151.184;2022-12-05T06:32:34;28.70;99.90
16441;DHT22;8330;-33.858;151.184;2022-12-05T06:35:05;29.20;99.90
16441;DHT22;8330;-33.858;151.184;2022-12-05T06:37:46;30.00;99.90
16441;DHT22;8330;-33.858;151.184;2022-12-05T06:40:18;30.70;99.90
16441;DHT22;8330;-33.858;151.184;2022-12-05T06:42:49;31.50;99.90
16441;DHT22;8330;-33.858;151.184;2022-12-05T06:45:20;31.70;99.90
16441;DHT22;8330;-33.858;151.184;2022-12-05T06:47:51;32.10;99.90
16441;DHT22;8330;-33.858;151.184;2022-12-05T06:50:23;32.50;99.90
16441;DHT22;8330;-33.858;151.184;2022-12-05T06:52:57;33.00;99.90
16441;DHT22;8330;-33.858;151.184;2022-12-05T06:55:28;32.60;99.90
16441;DHT22;8330;-33.858;151.184;2022-12-05T06:57:59;31.80;99.90
16441;DHT22;8330;-33.858;151.184;2022-12-05T07:00:30;31.00;99.90
16441;DHT22;8330;-33.858;151.184;2022-12-05T07:03:16;30.20;99.90
16441;DHT22;8330;-33.858;151.184;2022-12-05T07:05:47;29.50;99.90
16441;DHT22;8330;-33.858;151.184;2022-12-05T07:08:20;29.20;99.90
16441;DHT22;8330;-33.858;151.184;2022-12-05T07:10:54;28.80;99.90
16441;DHT22;8330;-33.858;151.184;2022-12-05T07:13:25;28.50;99.90
16441;DHT22;8330;-33.858;151.184;2022-12-05T07:15:56;28.10;99.90
16441;DHT22;8330;-33.858;151.184;2022-12-05T07:18:27;27.90;99.90
16441;DHT22;8330;-33.858;151.184;2022-12-05T07:20:59;27.70;99.90
16441;DHT22;8330;-33.858;151.184;2022-12-05T07:23:32;27.70;99.90
16441;DHT22;8330;-33.858;151.184;2022-12-05T07:26:05;27.50;99.90
16441;DHT22;8330;-33.858;151.184;2022-12-05T07:28:36;27.50;99.90
16441;DHT22;8330;-33.858;151.184;2022-12-05T07:31:09;27.30;99.90
16441;DHT22;8330;-33.858;151.184;2022-12-05T07:33:42;27.30;99.90
16441;DHT22;8330;-33.858;151.184;2022-12-05T07:36:14;27.20;99.90
16441;DHT22;8330;-33.858;151.184;2022-12-05T07:38:52;27.20;99.90
16441;DHT22;8330;-33.858;151.184;2022-12-05T07:41:24;27.20;99.90
16441;DHT22;8330;-33.858;151.184;2022-12-05T07:43:56;27.70;99.90
16441;DHT22;8330;-33.858;151.184;2022-12-05T07:46:28;27.80;99.90
16441;DHT22;8330;-33.858;151.184;2022-12-05T07:48:59;27.80;99.90
16441;DHT22;8330;-33.858;151.184;2022-12-05T07:51:32;27.70;99.90
16441;DHT22;8330;-33.858;151.184;2022-12-05T07:54:06;27.60;99.90
16441;DHT22;8330;-33.858;151.184;2022-12-05T07:56:37;27.50;99.90
16441;DHT22;8330;-33.858;151.184;2022-12-05T07:59:08;27.50;99.90
16441;DHT22;8330;-33.858;151.184;2022-12-05T08:01:38;27.30;99.90
16441;DHT22;8330;-33.858;151.184;2022-12-05T08:04:09;27.20;99.90
16441;DHT22;8330;-33.858;151.184;2022-12-05T08:06:40;27.00;99.90
16441;DHT22;8330;-33.858;151.184;2022-12-05T08:09:13;27.00;99.90
16441;DHT22;8330;-33.858;151.184;2022-12-05T08:11:45;26.90;99.90
16441;DHT22;8330;-33.858;151.184;2022-12-05T08:14:16;26.80;99.90
16441;DHT22;8330;-33.858;151.184;2022-12-05T08:16:46;26.50;99.90
16441;DHT22;8330;-33.858;151.184;2022-12-05T08:19:17;26.40;99.90
16441;DHT22;8330;-33.858;151.184;2022-12-05T08:21:48;26.30;99.90
16441;DHT22;8330;-33.858;151.184;2022-12-05T08:24:21;26.40;99.90
16441;DHT22;8330;-33.858;151.184;2022-12-05T08:26:52;26.30;99.90
16441;DHT22;8330;-33.858;151.184;2022-12-05T08:29:22;26.40;99.90
16441;DHT22;8330;-33.858;151.184;2022-12-05T08:31:53;26.40;99.90
16441;DHT22;8330;-33.858;151.184;2022-12-05T08:34:24;26.30;99.90
16441;DHT22;8330;-33.858;151.184;2022-12-05T08:36:55;26.30;99.90
16441;DHT22;8330;-33.858;151.184;2022-12-05T08:39:29;26.30;99.90
16441;DHT22;8330;-33.858;151.184;2022-12-05T08:42:00;26.30;99.90
16441;DHT22;8330;-33.858;151.184;2022-12-05T08:44:32;26.20;99.90
16441;DHT22;8330;-33.858;151.184;2022-12-05T08:47:03;26.20;99.90
16441;DHT22;8330;-33.858;151.184;2022-12-05T08:49:33;26.20;99.90
16441;DHT22;8330;-33.858;151.184;2022-12-05T08:52:04;26.00;99.90
16441;DHT22;8330;-33.858;151.184;2022-12-05T08:54:37;26.10;99.90
16441;DHT22;8330;-33.858;151.184;2022-12-05T08:57:08;26.00;99.90
16441;DHT22;8330;-33.858;151.184;2022-12-05T08:59:39;25.90;99.90
16441;DHT22;8330;-33.858;151.184;2022-12-05T09:02:09;25.80;99.90
16441;DHT22;8330;-33.858;151.184;2022-12-05T09:04:44;25.80;99.90
16441;DHT22;8330;-33.858;151.184;2022-12-05T09:07:14;25.80;99.90
16441;DHT22;8330;-33.858;151.184;2022-12-05T09:09:48;25.70;99.90
16441;DHT22;8330;-33.858;151.184;2022-12-05T09:12:19;25.70;99.90
16441;DHT22;8330;-33.858;151.184;2022-12-05T09:14:49;25.70;99.90
16441;DHT22;8330;-33.858;151.184;2022-12-05T09:17:20;25.70;99.90
16441;DHT22;8330;-33.858;151.184;2022-12-05T09:19:53;25.80;99.90
16441;DHT22;8330;-33.858;151.184;2022-12-05T09:22:24;25.80;99.90
16441;DHT22;8330;-33.858;151.184;2022-12-05T09:24:57;25.70;99.90
16441;DHT22;8330;-33.858;151.184;2022-12-05T09:27:28;25.60;99.90
16441;DHT22;8330;-33.858;151.184;2022-12-05T09:29:59;25.50;99.90
16441;DHT22;8330;-33.858;151.184;2022-12-05T09:32:30;25.50;99.90
16441;DHT22;8330;-33.858;151.184;2022-12-05T09:35:01;25.50;99.90
16441;DHT22;8330;-33.858;151.184;2022-12-05T09:37:31;25.40;99.90
16441;DHT22;8330;-33.858;151.184;2022-12-05T09:40:09;25.40;99.90
16441;DHT22;8330;-33.858;151.184;2022-12-05T09:42:54;25.30;99.90
16441;DHT22;8330;-33.858;151.184;2022-12-05T09:45:31;25.10;99.90
16441;DHT22;8330;-33.858;151.184;2022-12-05T09:48:09;24.80;99.90
16441;DHT22;8330;-33.858;151.184;2022-12-05T09:50:45;24.70;99.90
16441;DHT22;8330;-33.858;151.184;2022-12-05T09:53:25;24.40;99.90
16441;DHT22;8330;-33.858;151.184;2022-12-05T09:56:16;24.40;99.90
16441;DHT22;8330;-33.858;151.184;2022-12-05T09:58:51;24.40;99.90
16441;DHT22;8330;-33.858;151.184;2022-12-05T10:01:35;24.40;99.90
16441;DHT22;8330;-33.858;151.184;2022-12-05T10:04:28;24.30;99.90
16441;DHT22;8330;-33.858;151.184;2022-12-05T10:07:16;24.20;99.90
16441;DHT22;8330;-33.858;151.184;2022-12-05T10:09:58;24.10;99.90
16441;DHT22;8330;-33.858;151.184;2022-12-05T10:12:47;24.10;99.90
16441;DHT22;8330;-33.858;151.184;2022-12-05T10:15:29;23.90;99.90
16441;DHT22;8330;-33.858;151.184;2022-12-05T10:18:08;23.80;99.90
16441;DHT22;8330;-33.858;151.184;2022-12-05T10:20:52;23.80;99.90
16441;DHT22;8330;-33.858;151.184;2022-12-05T10:23:34;23.70;99.90
16441;DHT22;8330;-33.858;151.184;2022-12-05T10:26:14;23.70;99.90
16441;DHT22;8330;-33.858;151.184;2022-12-05T10:28:53;23.70;99.90
16441;DHT22;8330;-33.858;151.184;2022-12-05T10:31:29;23.80;99.90
16441;DHT22;8330;-33.858;151.184;2022-12-05T10:34:07;23.80;99.90
16441;DHT22;8330;-33.858;151.184;2022-12-05T10:36:41;23.70;99.90
16441;DHT22;8330;-33.858;151.184;2022-12-05T10:39:17;23.60;99.90
16441;DHT22;8330;-33.858;151.184;2022-12-05T10:41:50;23.60;99.90
16441;DHT22;8330;-33.858;151.184;2022-12-05T10:44:22;23.60;99.90
16441;DHT22;8330;-33.858;151.184;2022-12-05T10:46:53;23.70;99.90
16441;DHT22;8330;-33.858;151.184;2022-12-05T10:49:26;23.70;99.90
16441;DHT22;8330;-33.858;151.184;2022-12-05T10:51:59;23.60;99.90
16441;DHT22;8330;-33.858;151.184;2022-12-05T10:54:34;23.50;99.90
16441;DHT22;8330;-33.858;151.184;2022-12-05T10:57:21;23.50;99.90
16441;DHT22;8330;-33.858;151.184;2022-12-05T10:59:57;23.50;99.90
16441;DHT22;8330;-33.858;151.184;2022-12-05T11:02:30;23.40;99.90
16441;DHT22;8330;-33.858;151.184;2022-12-05T11:05:02;23.40;99.90
16441;DHT22;8330;-33.858;151.184;2022-12-05T11:07:35;23.30;99.90
16441;DHT22;8330;-33.858;151.184;2022-12-05T11:10:20;23.20;99.90
16441;DHT22;8330;-33.858;151.184;2022-12-05T11:12:55;23.10;99.90
16441;DHT22;8330;-33.858;151.184;2022-12-05T11:15:32;23.00;99.90
16441;DHT22;8330;-33.858;151.184;2022-12-05T11:18:21;22.80;99.90
16441;DHT22;8330;-33.858;151.184;2022-12-05T11:21:10;22.70;99.90
16441;DHT22;8330;-33.858;151.184;2022-12-05T11:23:47;22.60;99.90
16441;DHT22;8330;-33.858;151.184;2022-12-05T11:26:33;22.50;99.90
16441;DHT22;8330;-33.858;151.184;2022-12-05T11:29:10;22.40;99.90
16441;DHT22;8330;-33.858;151.184;2022-12-05T11:31:59;22.30;99.90
16441;DHT22;8330;-33.858;151.184;2022-12-05T11:34:37;22.30;99.90
16441;DHT22;8330;-33.858;151.184;2022-12-05T11:37:14;22.30;99.90
16441;DHT22;8330;-33.858;151.184;2022-12-05T11:39:48;22.30;99.90
16441;DHT22;8330;-33.858;151.184;2022-12-05T11:42:33;22.20;99.90
16441;DHT22;8330;-33.858;151.184;2022-12-05T11:45:29;22.10;99.90
16441;DHT22;8330;-33.858;151.184;2022-12-05T11:48:22;22.20;99.90
16441;DHT22;8330;-33.858;151.184;2022-12-05T11:51:10;22.10;99.90
16441;DHT22;8330;-33.858;151.184;2022-12-05T11:56:51;22.10;99.90
16441;DHT22;8330;-33.858;151.184;2022-12-05T12:02:45;22.00;99.90
16441;DHT22;8330;-33.858;151.184;2022-12-05T12:05:24;22.00;99.90
16441;DHT22;8330;-33.858;151.184;2022-12-05T12:08:06;22.00;99.90
16441;DHT22;8330;-33.858;151.184;2022-12-05T12:10:45;22.10;99.90
16441;DHT22;8330;-33.858;151.184;2022-12-05T12:13:29;22.10;99.90
16441;DHT22;8330;-33.858;151.184;2022-12-05T12:16:12;22.10;99.90
16441;DHT22;8330;-33.858;151.184;2022-12-05T12:19:08;22.00;99.90
16441;DHT22;8330;-33.858;151.184;2022-12-05T12:22:03;22.10;99.90
16441;DHT22;8330;-33.858;151.184;2022-12-05T12:24:48;22.10;99.90
16441;DHT22;8330;-33.858;151.184;2022-12-05T12:27:30;22.00;99.90
16441;DHT22;8330;-33.858;151.184;2022-12-05T12:30:11;22.00;99.90
16441;DHT22;8330;-33.858;151.184;2022-12-05T12:32:47;21.90;99.90
16441;DHT22;8330;-33.858;151.184;2022-12-05T12:35:30;21.90;99.90
16441;DHT22;8330;-33.858;151.184;2022-12-05T12:41:13;21.90;99.90
16441;DHT22;8330;-33.858;151.184;2022-12-05T12:43:55;21.80;99.90
16441;DHT22;8330;-33.858;151.184;2022-12-05T12:46:42;21.90;99.90
16441;DHT22;8330;-33.858;151.184;2022-12-05T12:49:27;21.80;99.90
16441;DHT22;8330;-33.858;151.184;2022-12-05T12:52:08;21.80;99.90
16441;DHT22;8330;-33.858;151.184;2022-12-05T12:54:55;21.60;99.90
16441;DHT22;8330;-33.858;151.184;2022-12-05T12:57:33;21.60;99.90
16441;DHT22;8330;-33.858;151.184;2022-12-05T13:00:17;21.60;99.90
16441;DHT22;8330;-33.858;151.184;2022-12-05T13:02:53;21.60;99.90
16441;DHT22;8330;-33.858;151.184;2022-12-05T13:05:33;21.60;99.90
16441;DHT22;8330;-33.858;151.184;2022-12-05T13:08:09;21.60;99.90
16441;DHT22;8330;-33.858;151.184;2022-12-05T13:10:44;21.60;99.90
16441;DHT22;8330;-33.858;151.184;2022-12-05T13:13:20;21.60;99.90
16441;DHT22;8330;-33.858;151.184;2022-12-05T13:15:53;21.70;99.90
16441;DHT22;8330;-33.858;151.184;2022-12-05T13:18:26;21.70;99.90
16441;DHT22;8330;-33.858;151.184;2022-12-05T13:21:04;21.70;99.90
16441;DHT22;8330;-33.858;151.184;2022-12-05T13:23:47;21.70;99.90
16441;DHT22;8330;-33.858;151.184;2022-12-05T13:26:21;21.70;99.90
16441;DHT22;8330;-33.858;151.184;2022-12-05T13:28:53;21.80;99.90
16441;DHT22;8330;-33.858;151.184;2022-12-05T13:31:36;21.80;99.90
16441;DHT22;8330;-33.858;151.184;2022-12-05T13:34:41;21.80;99.90
16441;DHT22;8330;-33.858;151.184;2022-12-05T13:37:20;21.80;99.90
16441;DHT22;8330;-33.858;151.184;2022-12-05T13:40:20;21.70;99.90
16441;DHT22;8330;-33.858;151.184;2022-12-05T13:43:10;21.70;99.90
16441;DHT22;8330;-33.858;151.184;2022-12-05T13:45:51;21.80;99.90
16441;DHT22;8330;-33.858;151.184;2022-12-05T13:48:26;21.70;99.90
16441;DHT22;8330;-33.858;151.184;2022-12-05T13:51:00;21.70;99.90
16441;DHT22;8330;-33.858;151.184;2022-12-05T13:53:36;21.70;99.90
16441;DHT22;8330;-33.858;151.184;2022-12-05T13:56:24;21.60;99.90
16441;DHT22;8330;-33.858;151.184;2022-12-05T13:58:58;21.60;99.90
16441;DHT22;8330;-33.858;151.184;2022-12-05T14:01:48;21.60;99.90
16441;DHT22;8330;-33.858;151.184;2022-12-05T14:07:44;21.60;99.90
16441;DHT22;8330;-33.858;151.184;2022-12-05T14:10:20;21.60;99.90
16441;DHT22;8330;-33.858;151.184;2022-12-05T14:12:53;21.50;99.90
16441;DHT22;8330;-33.858;151.184;2022-12-05T14:15:33;21.50;99.90
16441;DHT22;8330;-33.858;151.184;2022-12-05T14:18:13;21.40;99.90
16441;DHT22;8330;-33.858;151.184;2022-12-05T14:20:55;21.40;99.90
16441;DHT22;8330;-33.858;151.184;2022-12-05T14:23:48;21.40;99.90
16441;DHT22;8330;-33.858;151.184;2022-12-05T14:26:36;21.40;99.90
16441;DHT22;8330;-33.858;151.184;2022-12-05T14:29:42;21.30;99.90
16441;DHT22;8330;-33.858;151.184;2022-12-05T14:32:27;21.30;99.90
16441;DHT22;8330;-33.858;151.184;2022-12-05T14:35:10;21.20;99.90
16441;DHT22;8330;-33.858;151.184;2022-12-05T14:37:49;21.10;99.90
16441;DHT22;8330;-33.858;151.184;2022-12-05T14:40:26;21.20;99.90
16441;DHT22;8330;-33.858;151.184;2022-12-05T14:42:59;21.10;99.90
16441;DHT22;8330;-33.858;151.184;2022-12-05T14:45:33;21.00;99.90
16441;DHT22;8330;-33.858;151.184;2022-12-05T14:48:27;20.90;99.90
16441;DHT22;8330;-33.858;151.184;2022-12-05T14:51:00;20.90;99.90
16441;DHT22;8330;-33.858;151.184;2022-12-05T14:53:33;20.90;99.90
16441;DHT22;8330;-33.858;151.184;2022-12-05T14:56:17;20.90;99.90
16441;DHT22;8330;-33.858;151.184;2022-12-05T14:58:54;20.90;99.90
16441;DHT22;8330;-33.858;151.184;2022-12-05T15:01:29;20.90;99.90
16441;DHT22;8330;-33.858;151.184;2022-12-05T15:04:08;20.80;99.90
16441;DHT22;8330;-33.858;151.184;2022-12-05T15:06:48;20.80;99.90
16441;DHT22;8330;-33.858;151.184;2022-12-05T15:09:38;20.70;99.90
16441;DHT22;8330;-33.858;151.184;2022-12-05T15:12:14;20.70;99.90
16441;DHT22;8330;-33.858;151.184;2022-12-05T15:14:51;20.70;99.90
16441;DHT22;8330;-33.858;151.184;2022-12-05T15:17:27;20.70;99.90
16441;DHT22;8330;-33.858;151.184;2022-12-05T15:20:04;20.70;99.90
16441;DHT22;8330;-33.858;151.184;2022-12-05T15:22:37;20.70;99.90
16441;DHT22;8330;-33.858;151.184;2022-12-05T15:25:31;20.70;99.90
16441;DHT22;8330;-33.858;151.184;2022-12-05T15:28:04;20.80;99.90
16441;DHT22;8330;-33.858;151.184;2022-12-05T15:30:37;20.80;99.90
16441;DHT22;8330;-33.858;151.184;2022-12-05T15:33:12;20.80;99.90
16441;DHT22;8330;-33.858;151.184;2022-12-05T15:35:47;20.80;99.90
16441;DHT22;8330;-33.858;151.184;2022-12-05T15:38:22;20.70;99.90
16441;DHT22;8330;-33.858;151.184;2022-12-05T15:40:54;20.60;99.90
16441;DHT22;8330;-33.858;151.184;2022-12-05T15:43:28;20.70;99.90
16441;DHT22;8330;-33.858;151.184;2022-12-05T15:46:19;20.70;99.90
16441;DHT22;8330;-33.858;151.184;2022-12-05T15:48:51;20.60;99.90
16441;DHT22;8330;-33.858;151.184;2022-12-05T15:51:27;20.70;99.90
16441;DHT22;8330;-33.858;151.184;2022-12-05T15:54:05;20.60;99.90
16441;DHT22;8330;-33.858;151.184;2022-12-05T15:56:39;20.60;99.90
16441;DHT22;8330;-33.858;151.184;2022-12-05T15:59:14;20.60;99.90
16441;DHT22;8330;-33.858;151.184;2022-12-05T16:01:51;20.60;99.90
16441;DHT22;8330;-33.858;151.184;2022-12-05T16:04:27;20.60;99.90
16441;DHT22;8330;-33.858;151.184;2022-12-05T16:07:05;20.60;99.90
16441;DHT22;8330;-33.858;151.184;2022-12-05T16:09:39;20.60;99.90
16441;DHT22;8330;-33.858;151.184;2022-12-05T16:12:23;20.70;99.90